createdAt,value
2023-11-29T00:00:51.353Z,10.55
2023-11-29T00:03:18.701Z,10.43
2023-11-29T00:05:46.617Z,10.68
2023-11-29T00:08:14.228Z,11.23
2023-11-29T00:10:41.722Z,12.40
2023-11-29T00:13:09.089Z,9.98
2023-11-29T00:15:36.333Z,12.18
2023-11-29T00:18:03.782Z,11.45
2023-11-29T00:20:33.866Z,10.48
2023-11-29T00:23:01.180Z,9.90
2023-11-29T00:25:28.493Z,10.68
2023-11-29T00:27:56.163Z,12.23
2023-11-29T00:30:23.752Z,9.95
2023-11-29T00:32:51.983Z,10.80
2023-11-29T00:35:19.587Z,11.50
2023-11-29T00:37:47.012Z,11.35
2023-11-29T00:40:14.409Z,9.05
2023-11-29T00:42:43.795Z,10.70
2023-11-29T00:45:12.408Z,11.95
2023-11-29T00:47:40.249Z,11.57
2023-11-29T00:50:08.797Z,10.05
2023-11-29T00:52:36.399Z,10.80
2023-11-29T00:55:03.992Z,10.43
2023-11-29T00:57:31.350Z,9.60
2023-11-29T00:59:58.683Z,10.52
2023-11-29T01:02:26.076Z,10.55
2023-11-29T01:04:53.604Z,10.32
2023-11-29T01:07:20.966Z,10.02
2023-11-29T01:09:48.323Z,10.52
2023-11-29T01:12:16.638Z,10.43
2023-11-29T01:14:44.120Z,11.15
2023-11-29T01:17:11.466Z,11.38
2023-11-29T01:19:38.860Z,10.18
2023-11-29T01:22:06.777Z,10.02
2023-11-29T01:24:34.470Z,9.35
2023-11-29T01:27:01.914Z,9.43
2023-11-29T01:29:29.284Z,9.15
2023-11-29T01:31:56.594Z,9.35
2023-11-29T01:34:23.923Z,10.65
2023-11-29T01:36:51.472Z,10.05
2023-11-29T01:39:18.986Z,10.77
2023-11-29T01:41:46.380Z,9.77
2023-11-29T01:44:13.896Z,9.85
2023-11-29T01:46:42.301Z,10.18
2023-11-29T01:49:09.958Z,9.77
2023-11-29T01:51:38.086Z,10.32
2023-11-29T01:54:06.202Z,9.80
2023-11-29T01:56:35.004Z,10.55
2023-11-29T01:59:02.481Z,10.05
2023-11-29T02:01:29.945Z,10.48
2023-11-29T02:03:57.356Z,9.80
2023-11-29T02:06:25.371Z,9.10
2023-11-29T02:08:52.815Z,9.75
2023-11-29T02:11:21.778Z,9.93
2023-11-29T02:13:49.741Z,10.40
2023-11-29T02:16:17.444Z,10.00
2023-11-29T02:18:44.806Z,10.63
2023-11-29T02:21:12.253Z,11.30
2023-11-29T02:24:02.275Z,9.13
2023-11-29T02:26:30.122Z,9.13
2023-11-29T02:28:57.494Z,9.82
2023-11-29T02:31:24.884Z,11.02
2023-11-29T02:33:53.040Z,10.25
2023-11-29T02:36:20.312Z,8.20
2023-11-29T02:38:47.634Z,8.90
2023-11-29T02:41:15.284Z,8.90
2023-11-29T02:43:42.726Z,9.77
2023-11-29T02:46:10.023Z,9.32
2023-11-29T02:48:37.472Z,10.40
2023-11-29T02:51:05.029Z,10.23
2023-11-29T02:53:32.409Z,9.77
2023-11-29T02:55:59.761Z,9.80
2023-11-29T02:58:27.089Z,10.57
2023-11-29T03:00:54.558Z,9.02
2023-11-29T03:03:21.943Z,10.23
2023-11-29T03:05:50.402Z,8.40
2023-11-29T03:08:19.460Z,9.27
2023-11-29T03:10:48.567Z,9.98
2023-11-29T03:13:16.058Z,7.88
2023-11-29T03:15:43.415Z,8.77
2023-11-29T03:18:10.895Z,8.50
2023-11-29T03:20:38.301Z,8.88
2023-11-29T03:23:05.692Z,8.18
2023-11-29T03:25:33.021Z,7.95
2023-11-29T03:28:00.405Z,10.13
2023-11-29T03:30:27.717Z,8.13
2023-11-29T03:32:55.100Z,9.25
2023-11-29T03:35:22.594Z,8.25
2023-11-29T03:37:49.982Z,8.30
2023-11-29T03:40:17.295Z,9.18
2023-11-29T03:42:44.605Z,8.57
2023-11-29T03:45:12.076Z,8.68
2023-11-29T03:47:39.528Z,7.68
2023-11-29T03:50:07.967Z,8.93
2023-11-29T03:52:35.331Z,7.68
2023-11-29T03:55:03.124Z,7.93
2023-11-29T03:57:30.577Z,8.50
2023-11-29T03:59:57.909Z,9.15
2023-11-29T04:02:25.291Z,9.30
2023-11-29T04:04:52.794Z,9.20
2023-11-29T04:07:20.135Z,8.57
2023-11-29T04:09:49.773Z,9.65
2023-11-29T04:12:22.129Z,9.05
2023-11-29T04:14:49.510Z,8.93
2023-11-29T04:17:16.835Z,7.55
2023-11-29T04:19:44.389Z,7.55
2023-11-29T04:22:11.749Z,7.13
2023-11-29T04:24:39.047Z,8.93
2023-11-29T04:27:06.549Z,7.32
2023-11-29T04:29:33.990Z,8.73
2023-11-29T04:32:01.378Z,8.43
2023-11-29T04:34:36.470Z,7.25
2023-11-29T04:37:08.674Z,7.50
2023-11-29T04:39:36.056Z,8.38
2023-11-29T04:42:03.477Z,7.85
2023-11-29T04:44:30.832Z,7.47
2023-11-29T04:46:58.768Z,7.35
2023-11-29T04:49:26.075Z,8.63
2023-11-29T04:51:53.400Z,7.75
2023-11-29T04:54:20.729Z,7.65
2023-11-29T04:56:48.191Z,9.20
2023-11-29T04:59:15.647Z,8.35
2023-11-29T05:01:43.156Z,7.13
2023-11-29T05:04:10.738Z,7.65
2023-11-29T05:06:38.135Z,6.60
2023-11-29T05:09:07.569Z,8.77
2023-11-29T05:11:35.175Z,8.38
2023-11-29T05:14:02.515Z,8.02
2023-11-29T05:16:29.938Z,6.47
2023-11-29T05:18:57.276Z,8.27
2023-11-29T05:21:24.733Z,6.13
2023-11-29T05:23:52.089Z,6.80
2023-11-29T05:26:19.485Z,7.00
2023-11-29T05:28:47.882Z,8.00
2023-11-29T05:31:16.074Z,7.00
2023-11-29T05:33:43.458Z,7.57
2023-11-29T05:36:11.303Z,7.95
2023-11-29T05:38:38.657Z,7.20
2023-11-29T05:41:06.556Z,6.55
2023-11-29T05:43:33.897Z,7.50
2023-11-29T05:46:01.267Z,7.45
2023-11-29T05:48:28.732Z,6.88
2023-11-29T05:50:56.194Z,6.15
2023-11-29T05:53:24.688Z,7.22
2023-11-29T05:55:52.190Z,6.30
2023-11-29T05:58:19.554Z,6.35
2023-11-29T06:00:46.925Z,5.80
2023-11-29T06:03:14.302Z,7.18
2023-11-29T06:05:41.643Z,6.35
2023-11-29T06:08:08.896Z,6.18
2023-11-29T06:10:36.261Z,6.28
2023-11-29T06:13:04.398Z,6.47
2023-11-29T06:15:32.659Z,5.78
2023-11-29T06:18:01.917Z,6.57
2023-11-29T06:20:29.438Z,5.57
2023-11-29T06:22:56.848Z,6.40
2023-11-29T06:25:24.837Z,5.57
2023-11-29T06:27:52.147Z,6.75
2023-11-29T06:30:19.521Z,5.90
2023-11-29T06:32:46.975Z,5.47
2023-11-29T06:35:14.906Z,7.00
2023-11-29T06:37:46.946Z,8.48
2023-11-29T06:40:18.421Z,7.00
2023-11-29T06:42:48.942Z,5.82
2023-11-29T06:45:20.637Z,6.65
2023-11-29T06:47:48.699Z,5.50
2023-11-29T06:50:16.556Z,7.00
2023-11-29T06:52:46.540Z,8.07
2023-11-29T06:55:15.609Z,7.78
2023-11-29T06:57:46.147Z,10.57
2023-11-29T07:00:17.997Z,14.98
2023-11-29T07:02:45.974Z,14.35
2023-11-29T07:05:13.584Z,13.07
2023-11-29T07:07:40.902Z,13.00
2023-11-29T07:10:09.316Z,13.15
2023-11-29T07:12:37.000Z,16.02
2023-11-29T07:15:05.833Z,13.10
2023-11-29T07:17:33.572Z,12.02
2023-11-29T07:20:05.421Z,13.80
2023-11-29T07:22:35.798Z,13.38
2023-11-29T07:25:03.178Z,14.45
2023-11-29T07:27:30.477Z,12.05
2023-11-29T07:29:57.956Z,11.25
2023-11-29T07:32:25.457Z,12.52
2023-11-29T07:34:53.278Z,15.70
2023-11-29T07:37:21.889Z,11.00
2023-11-29T07:39:49.722Z,9.45
2023-11-29T07:42:17.201Z,10.13
2023-11-29T07:44:44.764Z,11.63
2023-11-29T07:47:12.572Z,12.95
2023-11-29T07:49:39.902Z,9.13
2023-11-29T07:52:07.682Z,11.57
2023-11-29T07:54:35.065Z,9.32
2023-11-29T07:57:02.492Z,11.35
2023-11-29T07:59:29.857Z,12.70
2023-11-29T08:01:57.217Z,14.05
2023-11-29T08:04:25.459Z,20.95
2023-11-29T08:06:52.884Z,27.42
2023-11-29T08:09:20.521Z,26.48
2023-11-29T08:11:47.882Z,24.55
2023-11-29T08:14:15.308Z,23.55
2023-11-29T08:16:42.690Z,16.55
2023-11-29T08:19:10.098Z,20.10
2023-11-29T08:21:37.989Z,16.08
2023-11-29T08:24:05.819Z,15.30
2023-11-29T08:26:33.309Z,19.75
2023-11-29T08:29:00.740Z,16.60
2023-11-29T08:31:28.424Z,16.75
2023-11-29T08:33:55.771Z,16.63
2023-11-29T08:36:23.240Z,12.93
2023-11-29T08:38:53.008Z,13.95
2023-11-29T08:41:20.849Z,13.63
2023-11-29T08:43:48.542Z,14.70
2023-11-29T08:46:16.063Z,15.23
2023-11-29T08:48:44.072Z,13.80
2023-11-29T08:51:11.636Z,14.80
2023-11-29T08:53:43.468Z,14.27
2023-11-29T08:56:19.426Z,13.70
2023-11-29T08:58:48.542Z,10.50
2023-11-29T09:01:20.533Z,13.88
2023-11-29T09:03:49.483Z,10.85
2023-11-29T09:06:17.493Z,11.07
2023-11-29T09:08:45.251Z,13.27
2023-11-29T09:11:12.981Z,10.32
2023-11-29T09:13:40.351Z,10.73
2023-11-29T09:16:08.819Z,8.45
2023-11-29T09:18:38.227Z,9.60
2023-11-29T09:21:06.013Z,12.32
2023-11-29T09:23:36.252Z,10.85
2023-11-29T09:26:03.783Z,8.82
2023-11-29T09:28:31.568Z,8.90
2023-11-29T09:31:02.200Z,8.27
2023-11-29T09:33:30.827Z,11.43
2023-11-29T09:35:58.651Z,12.00
2023-11-29T09:38:26.296Z,13.73
2023-11-29T09:40:53.747Z,11.20
2023-11-29T09:43:21.227Z,11.13
2023-11-29T09:45:48.942Z,12.10
2023-11-29T09:48:16.339Z,9.35
2023-11-29T09:50:44.400Z,10.60
2023-11-29T09:53:14.017Z,13.77
2023-11-29T09:55:41.370Z,9.85
2023-11-29T09:58:08.697Z,10.40
2023-11-29T10:00:37.083Z,11.93
2023-11-29T10:03:14.842Z,9.38
2023-11-29T10:05:46.937Z,16.35
2023-11-29T10:08:17.499Z,18.25
2023-11-29T10:10:45.759Z,18.33
2023-11-29T10:13:19.874Z,17.65
2023-11-29T10:15:49.675Z,18.95
2023-11-29T10:18:20.077Z,18.05
2023-11-29T10:20:56.278Z,17.02
2023-11-29T10:23:33.019Z,17.83
2023-11-29T10:26:00.636Z,16.88
2023-11-29T10:28:27.985Z,16.60
2023-11-29T10:30:55.837Z,12.75
2023-11-29T10:33:23.984Z,10.40
2023-11-29T10:35:51.999Z,10.43
2023-11-29T10:38:21.587Z,10.82
2023-11-29T10:40:50.081Z,12.13
2023-11-29T10:43:24.792Z,12.95
2023-11-29T10:46:00.405Z,14.63
2023-11-29T10:48:32.244Z,13.02
2023-11-29T10:51:00.171Z,13.13
2023-11-29T10:53:30.957Z,13.50
2023-11-29T10:55:59.189Z,15.30
2023-11-29T10:58:39.967Z,11.73
2023-11-29T11:01:09.180Z,14.98
2023-11-29T11:03:44.350Z,14.30
2023-11-29T11:06:24.610Z,15.52
2023-11-29T11:08:53.525Z,14.80
2023-11-29T11:11:43.202Z,15.25
2023-11-29T11:14:34.290Z,17.20
2023-11-29T11:17:08.165Z,16.42
2023-11-29T11:19:37.574Z,12.88
2023-11-29T11:22:13.646Z,13.80
2023-11-29T11:25:05.517Z,11.25
2023-11-29T11:27:35.575Z,11.60
2023-11-29T11:30:29.606Z,11.82
2023-11-29T11:33:00.881Z,12.80
2023-11-29T11:35:37.811Z,12.70
2023-11-29T11:38:10.591Z,12.00
2023-11-29T11:40:39.676Z,10.65
2023-11-29T11:43:07.932Z,12.40
2023-11-29T11:45:37.934Z,12.43
2023-11-29T11:48:06.806Z,10.23
2023-11-29T11:50:35.224Z,12.20
2023-11-29T11:53:04.894Z,10.63
2023-11-29T11:55:34.316Z,11.88
2023-11-29T11:58:05.508Z,11.77
2023-11-29T12:00:33.041Z,10.93
2023-11-29T12:03:02.371Z,10.15
2023-11-29T12:05:30.661Z,9.82
2023-11-29T12:07:59.112Z,10.90
2023-11-29T12:10:26.593Z,11.82
2023-11-29T12:12:55.267Z,12.40
2023-11-29T12:15:22.849Z,12.27
2023-11-29T12:17:50.474Z,8.90
2023-11-29T12:20:18.230Z,9.40
2023-11-29T12:22:49.008Z,10.00
2023-11-29T12:25:21.286Z,8.93
2023-11-29T12:27:52.306Z,9.70
2023-11-29T12:30:20.978Z,8.43
2023-11-29T12:32:49.210Z,8.90
2023-11-29T12:35:17.672Z,9.98
2023-11-29T12:37:48.256Z,9.10
2023-11-29T12:40:17.933Z,10.40
2023-11-29T12:42:46.544Z,9.88
2023-11-29T12:45:18.209Z,9.45
2023-11-29T12:47:45.790Z,8.15
2023-11-29T12:50:13.850Z,9.73
2023-11-29T12:52:41.924Z,7.35
2023-11-29T12:55:09.688Z,11.68
2023-11-29T12:57:37.759Z,8.63
2023-11-29T13:00:06.645Z,7.97
2023-11-29T13:02:34.248Z,7.60
2023-11-29T13:05:01.920Z,9.38
2023-11-29T13:07:29.334Z,8.55
2023-11-29T13:09:56.707Z,9.27
2023-11-29T13:12:24.060Z,8.02
2023-11-29T13:14:51.481Z,7.82
2023-11-29T13:17:22.211Z,7.97
2023-11-29T13:19:49.878Z,9.63
2023-11-29T13:22:17.239Z,6.78
2023-11-29T13:24:44.829Z,8.05
2023-11-29T13:27:13.815Z,7.57
2023-11-29T13:29:43.421Z,8.68
2023-11-29T13:32:12.073Z,8.32
2023-11-29T13:34:39.673Z,9.75
2023-11-29T13:37:07.027Z,8.52
2023-11-29T13:39:34.504Z,7.28
2023-11-29T13:42:02.039Z,8.13
2023-11-29T13:44:29.826Z,9.77
2023-11-29T13:46:57.685Z,7.30
2023-11-29T13:49:25.793Z,7.88
2023-11-29T13:52:04.235Z,8.00
2023-11-29T13:54:40.431Z,8.57
2023-11-29T13:57:07.950Z,7.15
2023-11-29T13:59:37.718Z,8.07
2023-11-29T14:02:14.388Z,7.50
2023-11-29T14:04:45.541Z,9.98
2023-11-29T14:07:13.120Z,7.40
2023-11-29T14:09:40.387Z,7.78
2023-11-29T14:12:07.927Z,10.63
2023-11-29T14:14:35.353Z,8.20
2023-11-29T14:17:02.750Z,8.10
2023-11-29T14:19:30.167Z,7.80
2023-11-29T14:21:57.511Z,9.15
2023-11-29T14:24:25.120Z,9.98
2023-11-29T14:26:54.449Z,7.38
2023-11-29T14:29:23.926Z,6.80
2023-11-29T14:31:52.992Z,6.95
2023-11-29T14:34:22.376Z,8.90
2023-11-29T14:36:54.945Z,7.35
2023-11-29T14:39:23.205Z,9.20
2023-11-29T14:41:50.566Z,7.28
2023-11-29T14:44:18.366Z,8.80
2023-11-29T14:46:45.753Z,6.93
2023-11-29T14:49:16.848Z,9.27
2023-11-29T14:51:51.288Z,6.68
2023-11-29T14:54:21.592Z,6.50
2023-11-29T14:56:49.058Z,6.13
2023-11-29T14:59:16.893Z,7.07
2023-11-29T15:01:44.209Z,7.45
2023-11-29T15:04:11.600Z,6.68
2023-11-29T15:06:39.156Z,7.65
2023-11-29T15:09:06.598Z,9.65
2023-11-29T15:11:36.071Z,7.80
2023-11-29T15:14:04.123Z,5.93
2023-11-29T15:16:31.595Z,7.78
2023-11-29T15:18:59.173Z,6.38
2023-11-29T15:21:26.656Z,7.43
2023-11-29T15:23:54.533Z,7.85
2023-11-29T15:26:22.708Z,8.20
2023-11-29T15:28:49.939Z,7.05
2023-11-29T15:31:17.261Z,8.23
2023-11-29T15:33:44.798Z,7.28
2023-11-29T15:36:12.527Z,6.70
2023-11-29T15:38:39.951Z,7.57
2023-11-29T15:41:07.330Z,6.72
2023-11-29T15:43:34.758Z,7.50
2023-11-29T15:46:02.236Z,8.82
2023-11-29T15:48:29.851Z,8.18
2023-11-29T15:50:57.318Z,7.53
2023-11-29T15:53:24.736Z,7.60
2023-11-29T15:55:52.431Z,8.23
2023-11-29T15:58:19.847Z,9.63
2023-11-29T16:00:47.163Z,10.68
2023-11-29T16:03:14.630Z,8.95
2023-11-29T16:05:43.561Z,7.25
2023-11-29T16:08:11.899Z,9.57
2023-11-29T16:10:39.361Z,6.60
2023-11-29T16:13:06.694Z,8.73
2023-11-29T16:15:35.659Z,7.18
2023-11-29T16:18:03.208Z,7.47
2023-11-29T16:20:32.877Z,6.95
2023-11-29T16:23:00.186Z,7.53
2023-11-29T16:25:27.879Z,7.45
2023-11-29T16:27:55.272Z,8.13
2023-11-29T16:30:22.804Z,6.93
2023-11-29T16:32:50.499Z,6.88
2023-11-29T16:35:18.577Z,8.27
2023-11-29T16:37:48.468Z,8.15
2023-11-29T16:40:16.073Z,7.32
2023-11-29T16:42:43.473Z,7.40
2023-11-29T16:45:10.961Z,7.03
2023-11-29T16:47:38.366Z,7.60
2023-11-29T16:50:07.116Z,6.03
2023-11-29T16:52:34.565Z,7.40
2023-11-29T16:55:02.617Z,6.13
2023-11-29T16:57:30.006Z,7.60
2023-11-29T16:59:57.333Z,7.20
2023-11-29T17:02:24.833Z,6.70
2023-11-29T17:04:52.370Z,7.35
2023-11-29T17:07:19.757Z,5.93
2023-11-29T17:09:47.200Z,7.47
2023-11-29T17:12:14.610Z,6.53
2023-11-29T17:14:42.006Z,6.78
2023-11-29T17:17:09.650Z,7.82
2023-11-29T17:19:36.998Z,6.90
2023-11-29T17:22:04.699Z,6.65
2023-11-29T17:24:32.167Z,7.63
2023-11-29T17:26:59.623Z,6.00
2023-11-29T17:29:27.014Z,6.40
2023-11-29T17:31:54.928Z,8.43
2023-11-29T17:34:22.245Z,6.38
2023-11-29T17:36:49.727Z,6.25
2023-11-29T17:39:17.136Z,6.63
2023-11-29T17:41:44.497Z,7.47
2023-11-29T17:44:13.123Z,7.72
2023-11-29T17:46:40.471Z,8.40
2023-11-29T17:49:08.012Z,7.28
2023-11-29T17:51:35.329Z,8.20
2023-11-29T17:54:02.695Z,6.78
2023-11-29T17:56:36.642Z,6.40
2023-11-29T17:59:13.583Z,8.68
2023-11-29T18:01:42.801Z,6.97
2023-11-29T18:04:11.078Z,7.03
2023-11-29T18:06:39.232Z,8.43
2023-11-29T18:09:06.891Z,8.43
2023-11-29T18:11:34.314Z,9.05
2023-11-29T18:14:01.801Z,6.93
2023-11-29T18:16:30.239Z,6.75
2023-11-29T18:18:58.788Z,7.30
2023-11-29T18:21:26.288Z,6.32
2023-11-29T18:23:54.721Z,8.38
2023-11-29T18:26:22.088Z,8.40
2023-11-29T18:28:51.916Z,6.20
2023-11-29T18:31:19.618Z,7.13
2023-11-29T18:33:47.271Z,9.07
2023-11-29T18:36:15.978Z,8.10
2023-11-29T18:38:44.056Z,6.93
2023-11-29T18:41:11.617Z,6.72
2023-11-29T18:43:39.006Z,10.38
2023-11-29T18:46:09.378Z,7.78
2023-11-29T18:48:36.993Z,8.10
2023-11-29T18:51:04.436Z,7.90
2023-11-29T18:53:31.809Z,8.00
2023-11-29T18:55:59.693Z,8.13
2023-11-29T18:58:27.158Z,7.13
2023-11-29T19:00:54.573Z,7.82
2023-11-29T19:03:22.253Z,9.25
2023-11-29T19:05:49.857Z,7.22
2023-11-29T19:08:17.213Z,7.80
2023-11-29T19:10:44.904Z,7.15
2023-11-29T19:13:12.268Z,9.45
2023-11-29T19:15:39.664Z,8.93
2023-11-29T19:18:07.158Z,7.95
2023-11-29T19:20:34.968Z,8.23
2023-11-29T19:23:02.443Z,9.50
2023-11-29T19:25:29.702Z,8.50
2023-11-29T19:27:56.985Z,9.25
2023-11-29T19:30:24.741Z,8.73
2023-11-29T19:32:52.159Z,8.35
2023-11-29T19:35:25.815Z,7.90
2023-11-29T19:37:58.149Z,10.23
2023-11-29T19:40:25.552Z,7.50
2023-11-29T19:42:52.879Z,7.90
2023-11-29T19:45:21.174Z,8.38
2023-11-29T19:47:48.645Z,7.85
2023-11-29T19:50:16.371Z,8.27
2023-11-29T19:52:48.312Z,9.63
2023-11-29T19:55:22.829Z,9.43
2023-11-29T19:57:50.138Z,10.02
2023-11-29T20:00:17.903Z,8.35
2023-11-29T20:02:45.265Z,10.27
2023-11-29T20:05:12.607Z,9.30
2023-11-29T20:07:40.638Z,9.55
2023-11-29T20:10:08.322Z,9.05
2023-11-29T20:12:35.653Z,8.80
2023-11-29T20:15:03.165Z,10.23
2023-11-29T20:17:30.550Z,9.40
2023-11-29T20:20:03.773Z,8.48
2023-11-29T20:22:34.452Z,10.20
2023-11-29T20:25:02.230Z,11.35
2023-11-29T20:27:29.601Z,9.93
2023-11-29T20:29:57.052Z,9.18
2023-11-29T20:32:24.584Z,7.80
2023-11-29T20:35:08.658Z,8.50
2023-11-29T20:37:39.431Z,8.38
2023-11-29T20:40:07.596Z,8.15
2023-11-29T20:42:36.399Z,9.85
2023-11-29T20:45:04.519Z,10.00
2023-11-29T20:47:32.089Z,9.90
2023-11-29T20:49:59.602Z,8.73
2023-11-29T20:52:27.028Z,8.32
2023-11-29T20:54:54.842Z,7.93
2023-11-29T20:57:23.582Z,9.85
2023-11-29T20:59:51.308Z,9.63
2023-11-29T21:02:18.697Z,10.77
2023-11-29T21:04:46.196Z,8.95
2023-11-29T21:07:13.871Z,10.07
2023-11-29T21:09:41.533Z,8.73
2023-11-29T21:12:09.509Z,9.10
2023-11-29T21:14:36.876Z,9.50
2023-11-29T21:17:05.506Z,8.32
2023-11-29T21:19:33.102Z,10.88
2023-11-29T21:22:27.675Z,9.73
2023-11-29T21:24:53.714Z,8.57
2023-11-29T21:27:36.995Z,8.95
2023-11-29T21:30:05.019Z,9.90
2023-11-29T21:32:32.388Z,10.07
2023-11-29T21:34:59.755Z,8.95
2023-11-29T21:37:27.097Z,9.13
2023-11-29T21:39:54.410Z,10.85
2023-11-29T21:42:21.690Z,9.75
2023-11-29T21:44:49.104Z,9.43
2023-11-29T21:47:17.594Z,9.57
2023-11-29T21:49:48.696Z,8.77
2023-11-29T21:52:16.084Z,9.48
2023-11-29T21:54:43.384Z,7.05
2023-11-29T21:57:10.828Z,8.57
2023-11-29T21:59:38.176Z,10.07
2023-11-29T22:02:05.581Z,8.40
2023-11-29T22:04:32.980Z,12.60
2023-11-29T22:07:01.045Z,10.52
2023-11-29T22:09:28.830Z,8.63
2023-11-29T22:11:57.028Z,9.82
2023-11-29T22:14:26.450Z,9.10
2023-11-29T22:16:54.605Z,9.90
2023-11-29T22:19:22.005Z,9.90
2023-11-29T22:21:49.268Z,10.63
2023-11-29T22:24:16.580Z,9.43
2023-11-29T22:26:52.259Z,9.38
2023-11-29T22:29:26.290Z,10.30
2023-11-29T22:31:54.981Z,9.10
2023-11-29T22:34:22.651Z,9.27
2023-11-29T22:36:50.796Z,10.43
2023-11-29T22:39:18.326Z,9.85
2023-11-29T22:41:45.877Z,10.80
2023-11-29T22:44:13.253Z,9.82
2023-11-29T22:46:41.210Z,8.70
2023-11-29T22:49:09.016Z,9.55
2023-11-29T22:51:37.211Z,8.30
2023-11-29T22:54:05.639Z,9.88
2023-11-29T22:56:37.131Z,8.30
2023-11-29T22:59:06.009Z,9.20
2023-11-29T23:01:34.316Z,11.07
2023-11-29T23:04:03.900Z,8.50
2023-11-29T23:06:32.743Z,11.52
2023-11-29T23:09:00.819Z,10.57
2023-11-29T23:11:28.226Z,11.10
2023-11-29T23:13:55.882Z,10.40
2023-11-29T23:16:23.342Z,11.70
2023-11-29T23:18:50.768Z,11.18
2023-11-29T23:21:18.422Z,12.13
2023-11-29T23:23:46.839Z,10.50
2023-11-29T23:26:14.415Z,12.48
2023-11-29T23:28:41.616Z,10.95
2023-11-29T23:31:09.309Z,10.95
2023-11-29T23:33:36.772Z,11.05
2023-11-29T23:36:07.758Z,11.80
2023-11-29T23:38:36.313Z,11.10
2023-11-29T23:41:03.741Z,12.18
2023-11-29T23:43:31.189Z,13.73
2023-11-29T23:45:59.037Z,11.05
2023-11-29T23:48:26.613Z,11.93
2023-11-29T23:50:54.062Z,11.50
2023-11-29T23:53:21.398Z,10.48
2023-11-29T23:55:48.714Z,10.88
2023-11-29T23:58:16.480Z,11.60
